Time;durP1;ratioP1;P1;durP2;ratioP2;P2;SDS_P1;SDS_P2;PMS_P1;PMS_P2;Temp;Humidity;BMP_temperature;BMP_pressure;BME280_temperature;BME280_humidity;BME280_pressure;Samples;Min_cycle;Max_cycle;Signal;HPM_P1;HPM_P2
2022/02/21 00:02:06;;;;;;;;;;;;;;;20.68;27.04;94799.94;10482790;28;1817;-56
2022/02/21 00:07:07;;;;;;;;;;;;;;;20.67;26.92;94793.13;10475516;28;1901;-53
2022/02/21 00:12:09;;;;;;;;;;;;;;;20.68;26.81;94784.94;10486936;28;1857;-56
2022/02/21 00:17:12;;;;;;;;;;;;;;;20.67;26.73;94759.66;10472595;28;1892;-54
2022/02/21 00:22:12;;;;;;;;;;;;;;;20.65;26.73;94738.13;10485461;28;1900;-56
2022/02/21 00:27:13;;;;;;;;;;;;;;;20.66;26.79;94731.78;10475171;28;1974;-53
2022/02/21 00:32:13;;;;;;;;;;;;;;;20.67;26.62;94727.31;10477700;28;1843;-55
2022/02/21 00:37:14;;;;;;;;;;;;;;;20.67;26.46;94722.81;10476952;28;1777;-57
2022/02/21 00:42:14;;;;;;;;;;;;;;;20.69;26.61;94725.91;10476161;28;1850;-57
2022/02/21 00:47:15;;;;;;;;;;;;;;;20.67;26.68;94714.91;10477844;28;1983;-56
2022/02/21 00:52:15;;;;;;;;;;;;;;;20.68;26.60;94691.97;10479900;28;1781;-57
2022/02/21 00:57:15;;;;;;;;;;;;;;;20.68;26.47;94692.78;10476602;28;1748;-57
2022/02/21 01:02:16;;;;;;;;;;;;;;;20.69;26.56;94689.03;10475525;28;1750;-56
2022/02/21 01:07:16;;;;;;;;;;;;;;;20.70;26.38;94682.72;10471957;28;1966;-56
2022/02/21 01:12:16;;;;;;;;;;;;;;;20.69;26.81;94656.69;10481531;28;1634;-56
2022/02/21 01:17:17;;;;;;;;;;;;;;;20.68;26.62;94641.97;10478494;28;1868;-54
2022/02/21 01:22:17;;;;;;;;;;;;;;;20.66;26.70;94630.94;10479844;28;1810;-57
2022/02/21 01:27:18;;;;;;;;;;;;;;;20.68;26.67;94634.06;10476791;28;1985;-57
2022/02/21 01:32:18;;;;;;;;;;;;;;;20.69;26.37;94635.63;10478961;28;1844;-57
2022/02/21 01:37:18;;;;;;;;;;;;;;;20.69;26.52;94607.41;10480944;28;1862;-57
2022/02/21 01:42:19;;;;;;;;;;;;;;;20.68;26.16;94610.34;10478977;28;1800;-57
2022/02/21 01:47:20;;;;;;;;;;;;;;;20.67;26.59;94601.66;10489907;28;2251;-56
2022/02/21 01:52:21;;;;;;;;;;;;;;;20.68;26.49;94582.19;10479376;28;1857;-55
2022/02/21 01:57:21;;;;;;;;;;;;;;;20.68;26.27;94558.47;10464125;28;2066;-57
2022/02/21 02:02:21;;;;;;;;;;;;;;;20.68;26.24;94550.56;10478983;28;2408;-55
2022/02/21 02:07:22;;;;;;;;;;;;;;;20.68;26.30;94524.25;10474645;28;1955;-57
2022/02/21 02:12:22;;;;;;;;;;;;;;;20.68;26.54;94503.19;10472949;28;1944;-56
2022/02/21 02:17:23;;;;;;;;;;;;;;;20.67;26.20;94470.00;10475550;28;1878;-56
2022/02/21 02:22:23;;;;;;;;;;;;;;;20.67;26.54;94475.28;10474404;28;1859;-56
2022/02/21 02:27:25;;;;;;;;;;;;;;;20.68;26.39;94455.78;10476308;28;1937;-55
2022/02/21 02:32:26;;;;;;;;;;;;;;;20.68;26.45;94431.31;10474085;28;1914;-56
2022/02/21 02:37:26;;;;;;;;;;;;;;;20.67;26.28;94421.88;10479709;28;1898;-55
2022/02/21 02:42:28;;;;;;;;;;;;;;;20.68;26.35;94407.59;10480203;28;1819;-57
2022/02/21 02:47:28;;;;;;;;;;;;;;;20.68;26.41;94382.06;10474875;28;1918;-56
2022/02/21 02:52:29;;;;;;;;;;;;;;;20.67;26.28;94375.22;10473908;28;1918;-56
2022/02/21 02:57:30;;;;;;;;;;;;;;;20.67;26.35;94366.56;10478508;28;1958;-56
2022/02/21 03:02:30;;;;;;;;;;;;;;;20.67;26.41;94354.16;10474528;28;1996;-57
2022/02/21 03:07:30;;;;;;;;;;;;;;;20.68;26.26;94339.16;10472206;28;1977;-54
2022/02/21 03:12:31;;;;;;;;;;;;;;;20.67;26.48;94340.25;10473901;28;2145;-55
2022/02/21 03:17:31;;;;;;;;;;;;;;;20.66;26.39;94342.09;10476096;28;2004;-56
2022/02/21 03:22:31;;;;;;;;;;;;;;;20.66;26.27;94346.56;10475538;28;1973;-55
2022/02/21 03:27:32;;;;;;;;;;;;;;;20.64;26.22;94320.56;10472924;28;2313;-56
2022/02/21 03:32:32;;;;;;;;;;;;;;;20.64;26.18;94291.59;10463163;28;1894;-55
2022/02/21 03:37:32;;;;;;;;;;;;;;;20.64;26.06;94291.59;10473602;28;2052;-54
2022/02/21 03:42:33;;;;;;;;;;;;;;;20.64;26.07;94311.88;10471620;28;1970;-54
2022/02/21 03:47:33;;;;;;;;;;;;;;;20.63;25.98;94295.31;10475295;28;1973;-56
2022/02/21 03:52:34;;;;;;;;;;;;;;;20.64;25.99;94294.22;10470193;28;1954;-55
2022/02/21 03:57:34;;;;;;;;;;;;;;;20.65;26.14;94290.50;10471432;28;2381;-56
2022/02/21 04:02:35;;;;;;;;;;;;;;;20.64;26.05;94278.44;10472825;28;2020;-56
2022/02/21 04:07:35;;;;;;;;;;;;;;;20.66;25.97;94278.13;10471442;28;1992;-55
2022/02/21 04:12:36;;;;;;;;;;;;;;;20.64;26.07;94254.75;10483053;28;2053;-57
2022/02/21 04:17:43;;;;;;;;;;;;;;;20.64;25.76;94241.56;10486540;28;1962;-56
2022/02/21 04:22:44;;;;;;;;;;;;;;;20.64;25.96;94272.38;10476763;28;2076;-56
2022/02/21 04:27:46;;;;;;;;;;;;;;;20.64;26.05;94262.63;10473143;28;1931;-55
2022/02/21 04:32:47;;;;;;;;;;;;;;;20.61;25.71;94255.34;10471570;28;1880;-52
2022/02/21 04:37:48;;;;;;;;;;;;;;;20.61;25.73;94275.66;10483627;28;2104;-56
2022/02/21 04:42:50;;;;;;;;;;;;;;;20.63;26.07;94255.81;10476265;28;1994;-56
2022/02/21 04:47:51;;;;;;;;;;;;;;;20.63;25.93;94242.66;10484029;28;1919;-57
2022/02/21 04:52:51;;;;;;;;;;;;;;;20.63;26.08;94226.84;10480892;28;1938;-55
2022/02/21 04:57:52;;;;;;;;;;;;;;;20.63;25.86;94247.16;10484153;28;1925;-54
2022/02/21 05:02:52;;;;;;;;;;;;;;;20.62;25.77;94241.13;10484803;28;1903;-57
2022/02/21 05:07:53;;;;;;;;;;;;;;;20.63;26.11;94242.66;10471987;28;1994;-57
2022/02/21 05:12:53;;;;;;;;;;;;;;;20.64;26.21;94232.91;10482234;28;1913;-55
2022/02/21 05:17:53;;;;;;;;;;;;;;;20.63;25.94;94211.06;10477930;28;1961;-56
2022/02/21 05:22:55;;;;;;;;;;;;;;;20.65;26.10;94216.03;10479366;28;1906;-55
2022/02/21 05:27:56;;;;;;;;;;;;;;;20.63;26.05;94187.34;10475088;28;1969;-55
2022/02/21 05:32:57;;;;;;;;;;;;;;;20.63;25.99;94199.78;10476876;28;1961;-56
2022/02/21 05:37:57;;;;;;;;;;;;;;;20.62;25.93;94185.81;10479942;28;1962;-55
2022/02/21 05:42:57;;;;;;;;;;;;;;;20.62;26.00;94204.25;10480436;28;1920;-56
2022/02/21 05:47:57;;;;;;;;;;;;;;;20.62;26.08;94203.47;10474382;28;1902;-57
2022/02/21 05:52:58;;;;;;;;;;;;;;;20.61;26.06;94213.22;10477438;28;1924;-55
2022/02/21 05:57:58;;;;;;;;;;;;;;;20.61;26.05;94297.47;10472807;28;2033;-56
2022/02/21 06:02:59;;;;;;;;;;;;;;;20.62;26.12;94429.88;10482265;28;1970;-57
2022/02/21 06:07:59;;;;;;;;;;;;;;;20.67;26.42;94456.09;10475428;28;2486;-56
2022/02/21 06:13:00;;;;;;;;;;;;;;;20.67;26.23;94483.19;10471991;28;1902;-57
2022/02/21 06:18:01;;;;;;;;;;;;;;;20.70;26.34;94506.28;10476487;28;1961;-56
2022/02/21 06:23:01;;;;;;;;;;;;;;;20.72;26.55;94500.72;10475833;28;1973;-56
2022/02/21 06:28:02;;;;;;;;;;;;;;;20.73;26.53;94536.50;10478211;28;1994;-56
2022/02/21 06:33:03;;;;;;;;;;;;;;;20.72;26.37;94545.47;10474635;28;2012;-57
2022/02/21 06:38:04;;;;;;;;;;;;;;;20.69;26.26;94531.06;10474300;28;2001;-57
2022/02/21 06:43:05;;;;;;;;;;;;;;;20.66;26.20;94536.94;10474309;28;1902;-56
2022/02/21 06:48:05;;;;;;;;;;;;;;;20.70;26.23;94537.09;10478079;28;1965;-56
2022/02/21 06:53:06;;;;;;;;;;;;;;;20.68;26.30;94528.72;10472912;28;1949;-56
2022/02/21 06:58:10;;;;;;;;;;;;;;;20.67;26.14;94517.41;10472894;28;2000;-56
2022/02/21 07:03:11;;;;;;;;;;;;;;;20.68;26.30;94534.78;10476588;28;2026;-56
2022/02/21 07:08:12;;;;;;;;;;;;;;;20.69;26.08;94541.59;10471392;28;1961;-56
2022/02/21 07:13:12;;;;;;;;;;;;;;;20.70;27.04;94545.78;10470214;28;1828;-56
2022/02/21 07:18:13;;;;;;;;;;;;;;;20.73;26.89;94573.38;10446753;28;1903;-57
2022/02/21 07:23:13;;;;;;;;;;;;;;;20.74;27.44;94582.81;10479534;28;1931;-56
2022/02/21 07:28:15;;;;;;;;;;;;;;;20.71;26.74;94596.59;10468809;28;1959;-57
2022/02/21 07:33:15;;;;;;;;;;;;;;;20.70;26.58;94582.66;10468367;28;2048;-57
2022/02/21 07:38:16;;;;;;;;;;;;;;;20.72;26.51;94640.28;10502297;28;1894;-55
2022/02/21 07:43:16;;;;;;;;;;;;;;;20.69;26.75;94641.66;10468845;28;2044;-53
2022/02/21 07:48:16;;;;;;;;;;;;;;;20.70;26.50;94629.25;10483458;28;1977;-54
2022/02/21 07:53:17;;;;;;;;;;;;;;;20.68;26.75;94629.56;10476064;28;2009;-55
2022/02/21 07:58:17;;;;;;;;;;;;;;;20.70;26.76;94701.16;10476437;28;1985;-57
2022/02/21 08:03:18;;;;;;;;;;;;;;;20.68;26.69;94719.09;10481657;28;1993;-57
2022/02/21 08:08:18;;;;;;;;;;;;;;;20.66;26.66;94696.78;10480619;28;1989;-58
2022/02/21 08:13:18;;;;;;;;;;;;;;;20.68;26.72;94713.06;10483537;28;2014;-56
2022/02/21 08:18:19;;;;;;;;;;;;;;;20.65;26.67;94766.31;10472168;28;2088;-58
2022/02/21 08:23:19;;;;;;;;;;;;;;;20.64;26.66;94744.47;10476193;28;1980;-57
2022/02/21 08:28:19;;;;;;;;;;;;;;;20.74;27.08;94822.47;10471689;28;1910;-58
2022/02/21 08:33:20;;;;;;;;;;;;;;;20.71;26.76;94859.94;10472137;28;2104;-58
2022/02/21 08:38:20;;;;;;;;;;;;;;;20.67;26.76;94843.94;10483098;28;2027;-56
2022/02/21 08:43:25;;;;;;;;;;;;;;;20.65;26.74;94837.44;10472211;28;1914;-56
2022/02/21 08:48:26;;;;;;;;;;;;;;;20.65;26.40;94829.53;10473153;28;2003;-55
2022/02/21 08:53:26;;;;;;;;;;;;;;;20.64;26.42;94849.00;10479090;28;1922;-56
2022/02/21 08:58:27;;;;;;;;;;;;;;;20.65;26.48;94874.28;10476825;28;1890;-56
2022/02/21 09:03:27;;;;;;;;;;;;;;;20.64;26.64;94868.22;10478559;28;2005;-54
2022/02/21 09:08:31;;;;;;;;;;;;;;;20.67;26.62;94875.53;10475372;28;2116;-58
2022/02/21 09:13:31;;;;;;;;;;;;;;;20.65;26.64;94882.94;10477455;28;1891;-57
2022/02/21 09:18:32;;;;;;;;;;;;;;;20.66;26.82;94894.25;10474554;28;2017;-56
2022/02/21 09:23:32;;;;;;;;;;;;;;;20.65;26.42;94888.22;10475833;28;2015;-57
2022/02/21 09:28:33;;;;;;;;;;;;;;;20.65;26.55;94875.03;10466575;28;2005;-53
2022/02/21 09:33:33;;;;;;;;;;;;;;;20.68;26.75;94877.09;10476121;28;2189;-57
2022/02/21 09:38:33;;;;;;;;;;;;;;;20.67;26.80;94891.34;10481335;28;1889;-56
2022/02/21 09:43:34;;;;;;;;;;;;;;;20.68;26.49;94905.28;10459714;28;1870;-54
2022/02/21 09:48:37;;;;;;;;;;;;;;;20.69;26.76;94899.72;10474511;28;1948;-55
2022/02/21 09:53:38;;;;;;;;;;;;;;;20.70;26.73;94911.03;10473405;28;1930;-54
2022/02/21 09:58:39;;;;;;;;;;;;;;;20.69;26.65;94904.97;10471728;28;1809;-57
2022/02/21 10:03:43;;;;;;;;;;;;;;;20.71;26.85;94904.72;10468688;28;1821;-57
2022/02/21 10:09:10;;;;;;;;;;;;;;;20.72;26.71;94893.88;10473304;28;1975;-54
2022/02/21 10:14:12;;;;;;;;;;;;;;;20.71;26.61;94862.56;10471052;28;1908;-52
2022/02/21 10:19:23;;;;;;;;;;;;;;;20.74;26.59;94875.13;10469719;28;1770;-55
2022/02/21 10:24:24;;;;;;;;;;;;;;;20.76;26.84;94868.50;10471813;28;1925;-56
2022/02/21 10:29:25;;;;;;;;;;;;;;;20.76;26.79;94876.41;10471161;28;2092;-55
2022/02/21 10:34:27;;;;;;;;;;;;;;;20.79;26.55;94872.41;10472020;28;1781;-53
2022/02/21 10:39:29;;;;;;;;;;;;;;;20.86;27.00;94883.31;10460006;28;1838;-53
2022/02/21 10:44:31;;;;;;;;;;;;;;;20.85;26.71;94866.75;10471933;28;1891;-53
2022/02/21 10:49:34;;;;;;;;;;;;;;;20.86;26.96;94849.06;10473332;28;1901;-54
2022/02/21 10:54:35;;;;;;;;;;;;;;;20.89;26.75;94843.22;10467612;28;1843;-56
2022/02/21 10:59:37;;;;;;;;;;;;;;;20.85;26.49;94845.69;10469100;28;1875;-55
2022/02/21 11:04:37;;;;;;;;;;;;;;;20.83;26.68;94837.28;10466520;28;1789;-56
2022/02/21 11:09:38;;;;;;;;;;;;;;;20.82;26.68;94845.47;10463868;28;1977;-55
2022/02/21 11:14:40;;;;;;;;;;;;;;;20.84;26.50;94848.59;10461353;28;1907;-55
2022/02/21 11:19:42;;;;;;;;;;;;;;;20.84;26.74;94845.94;10474553;28;1933;-55
2022/02/21 11:24:49;;;;;;;;;;;;;;;20.85;26.84;94837.78;10471907;28;1829;-56
2022/02/21 11:30:06;;;;;;;;;;;;;;;20.92;26.85;94848.66;10440011;28;2064;-55
2022/02/21 11:35:10;;;;;;;;;;;;;;;20.99;27.33;94838.50;10454637;28;1854;-53
2022/02/21 11:40:10;;;;;;;;;;;;;;;20.92;26.73;94819.69;10482912;28;1824;-53
2022/02/21 11:45:27;;;;;;;;;;;;;;;20.94;26.72;94814.09;10475190;28;1913;-51
2022/02/21 11:50:29;;;;;;;;;;;;;;;21.12;27.10;94812.44;10475960;28;1825;-54
2022/02/21 11:55:29;;;;;;;;;;;;;;;21.18;27.19;94798.06;10480618;28;1845;-54
2022/02/21 12:05:46;;;;;;;;;;;;;;;21.37;27.96;94802.06;10948877;22;3488;-45
2022/02/21 12:11:07;;;;;;;;;;;;;;;21.32;27.72;94785.59;10462933;28;3215;-45
2022/02/21 12:16:08;;;;;;;;;;;;;;;21.28;28.27;94768.81;10440001;28;2888;-45
2022/02/21 12:21:17;;;;;;;;;;;;;;;21.30;28.35;94779.84;10420113;28;3079;-46
2022/02/21 12:26:27;;;;;;;;;;;;;;;21.33;28.31;94773.97;10426602;28;2128;-50
2022/02/21 12:31:28;;;;;;;;;;;;;;;21.37;28.40;94756.47;10419630;28;1994;-46
2022/02/21 12:36:35;;;;;;;;;;;;;;;21.41;27.65;94766.09;10424949;28;2077;-48
2022/02/21 12:41:36;;;;;;;;;;;;;;;21.47;27.86;94749.09;10417280;28;3108;-50
2022/02/21 12:46:43;;;;;;;;;;;;;;;21.45;27.93;94732.78;10443190;28;2057;-49
2022/02/21 12:51:47;;;;;;;;;;;;;;;21.52;27.55;94727.06;10441326;28;2038;-48
2022/02/21 12:56:47;;;;;;;;;;;;;;;21.45;27.86;94722.22;10426193;28;1975;-48
2022/02/21 13:01:49;;;;;;;;;;;;;;;21.47;27.66;94753.59;10445051;28;2082;-46
2022/02/21 13:06:49;;;;;;;;;;;;;;;21.52;27.48;94764.00;10443949;28;1939;-49
2022/02/21 13:11:56;;;;;;;;;;;;;;;21.59;27.49;94759.84;10427779;28;3124;-49
2022/02/21 13:16:57;;;;;;;;;;;;;;;21.71;27.55;94762.69;10425129;28;2024;-46
2022/02/21 13:21:58;;;;;;;;;;;;;;;22.26;26.88;94736.66;10424698;28;2030;-49
2022/02/21 13:26:59;;;;;;;;;;;;;;;22.64;26.47;94729.75;10424828;28;1978;-50
2022/02/21 13:32:00;;;;;;;;;;;;;;;22.91;26.16;94723.38;10440813;28;1823;-49
2022/02/21 13:37:10;;;;;;;;;;;;;;;22.60;26.12;94712.97;10438092;28;1842;-45
2022/02/21 13:42:17;;;;;;;;;;;;;;;22.44;26.15;94717.09;10426588;28;2012;-49
2022/02/21 13:47:28;;;;;;;;;;;;;;;22.00;27.15;94716.56;10424680;28;2125;-44
2022/02/21 13:52:28;;;;;;;;;;;;;;;21.70;28.06;94707.63;10423103;28;1861;-52
2022/02/21 13:57:28;;;;;;;;;;;;;;;21.64;28.11;94714.88;10421536;28;1935;-51
2022/02/21 14:02:29;;;;;;;;;;;;;;;21.84;27.83;94697.75;10425764;28;2272;-45
2022/02/21 14:07:29;;;;;;;;;;;;;;;22.40;26.99;94712.78;10398408;28;1977;-47
2022/02/21 14:12:29;;;;;;;;;;;;;;;21.96;26.97;94705.88;10438590;28;3152;-44
2022/02/21 14:17:30;;;;;;;;;;;;;;;21.64;27.44;94714.09;10442636;28;2068;-45
2022/02/21 14:22:31;;;;;;;;;;;;;;;21.53;27.49;94710.19;10440187;28;2041;-46
2022/02/21 14:27:33;;;;;;;;;;;;;;;21.45;27.54;94693.22;10441250;28;1966;-47
2022/02/21 14:32:33;;;;;;;;;;;;;;;21.36;27.60;94702.19;10424453;28;2029;-46
2022/02/21 14:37:34;;;;;;;;;;;;;;;21.33;26.77;94679.84;10432942;28;1894;-44
2022/02/21 14:42:34;;;;;;;;;;;;;;;21.32;27.54;94680.94;10427224;28;1888;-50
2022/02/21 14:47:34;;;;;;;;;;;;;;;21.33;27.32;94689.63;10418508;28;1969;-45
2022/02/21 14:52:35;;;;;;;;;;;;;;;21.30;28.41;94683.09;10418590;28;2074;-44
2022/02/21 14:57:36;;;;;;;;;;;;;;;21.30;28.17;94675.19;10416640;28;1872;-46
2022/02/21 15:02:36;;;;;;;;;;;;;;;21.37;26.48;94685.31;10420210;28;1934;-45
2022/02/21 15:07:37;;;;;;;;;;;;;;;21.34;26.30;94689.31;10439235;28;1918;-46
2022/02/21 15:12:37;;;;;;;;;;;;;;;21.39;25.95;94677.88;10436452;28;3111;-48
2022/02/21 15:17:38;;;;;;;;;;;;;;;21.46;25.49;94670.28;10440127;28;1891;-47
2022/02/21 15:22:38;;;;;;;;;;;;;;;21.50;25.54;94660.69;10421044;28;2022;-52
2022/02/21 15:27:38;;;;;;;;;;;;;;;21.56;25.37;94664.72;10421382;28;1961;-47
2022/02/21 15:32:42;;;;;;;;;;;;;;;21.60;25.24;94681.50;10417954;28;1971;-50
2022/02/21 15:37:43;;;;;;;;;;;;;;;21.64;25.21;94679.81;10440264;28;2127;-45
2022/02/21 15:42:45;;;;;;;;;;;;;;;21.67;25.38;94676.56;10416731;28;2023;-44
2022/02/21 15:47:46;;;;;;;;;;;;;;;21.71;25.22;94678.28;10419812;28;2028;-47
2022/02/21 15:52:46;;;;;;;;;;;;;;;21.72;25.04;94684.34;10420446;28;1833;-45
2022/02/21 15:57:47;;;;;;;;;;;;;;;21.74;25.27;94676.91;10436989;28;1976;-44
2022/02/21 16:02:47;;;;;;;;;;;;;;;21.74;25.13;94680.31;10418105;28;1794;-46
2022/02/21 16:07:47;;;;;;;;;;;;;;;21.73;24.78;94676.13;10425039;28;1910;-52
2022/02/21 16:12:48;;;;;;;;;;;;;;;21.76;24.98;94669.47;10425488;28;2298;-47
2022/02/21 16:17:49;;;;;;;;;;;;;;;21.77;25.14;94663.09;10427087;28;2196;-46
2022/02/21 16:22:49;;;;;;;;;;;;;;;21.76;24.92;94659.69;10421729;28;1840;-50
2022/02/21 16:27:49;;;;;;;;;;;;;;;21.76;24.96;94658.91;10446949;28;1967;-46
2022/02/21 16:32:50;;;;;;;;;;;;;;;21.75;24.71;94652.88;10428227;28;1510;-46
2022/02/21 16:37:50;;;;;;;;;;;;;;;21.77;24.78;94631.44;10443330;28;1832;-49
2022/02/21 16:42:52;;;;;;;;;;;;;;;21.78;25.19;94664.66;10438841;28;1863;-45
2022/02/21 16:47:52;;;;;;;;;;;;;;;21.78;24.47;94667.31;10447543;28;1902;-43
2022/02/21 16:52:53;;;;;;;;;;;;;;;21.77;24.34;94655.19;10427223;28;1835;-44
2022/02/21 16:57:53;;;;;;;;;;;;;;;21.76;24.37;94654.41;10445807;28;1772;-48
2022/02/21 17:02:55;;;;;;;;;;;;;;;21.77;24.42;94663.88;10425148;28;1742;-46
2022/02/21 17:07:55;;;;;;;;;;;;;;;21.77;24.17;94655.19;10427403;28;1971;-46
2022/02/21 17:12:56;;;;;;;;;;;;;;;21.76;24.16;94664.94;10424015;28;3152;-46
2022/02/21 17:17:56;;;;;;;;;;;;;;;21.79;24.58;94647.75;10443812;28;1837;-45
2022/02/21 17:22:56;;;;;;;;;;;;;;;21.80;24.69;94644.03;10419293;28;1849;-44
2022/02/21 17:27:57;;;;;;;;;;;;;;;21.80;24.40;94636.88;10442352;28;1977;-48
2022/02/21 17:32:57;;;;;;;;;;;;;;;21.68;24.64;94651.75;10428006;28;2017;-48
2022/02/21 17:37:58;;;;;;;;;;;;;;;21.57;24.90;94656.53;10446705;28;1844;-47
2022/02/21 17:43:01;;;;;;;;;;;;;;;21.49;25.08;94665.19;10441808;28;1836;-46
2022/02/21 17:48:01;;;;;;;;;;;;;;;21.41;25.08;94670.44;10446228;28;1902;-44
2022/02/21 17:53:02;;;;;;;;;;;;;;;21.34;25.20;94683.25;10443484;28;1823;-46
2022/02/21 17:58:02;;;;;;;;;;;;;;;21.27;25.01;94672.41;10438840;28;1902;-48
2022/02/21 18:03:03;;;;;;;;;;;;;;;21.23;25.31;94681.97;10442640;28;1799;-46
2022/02/21 18:08:04;;;;;;;;;;;;;;;21.19;25.25;94658.06;10441376;28;2105;-45
2022/02/21 18:13:07;;;;;;;;;;;;;;;21.16;25.17;94644.75;10441236;28;1832;-42
2022/02/21 18:18:11;;;;;;;;;;;;;;;21.15;25.45;94632.63;10424211;28;1847;-44
2022/02/21 18:23:12;;;;;;;;;;;;;;;21.14;25.81;94652.16;10439491;28;2021;-47
2022/02/21 18:28:13;;;;;;;;;;;;;;;21.15;25.58;94669.53;10439919;28;1914;-48
2022/02/21 18:33:13;;;;;;;;;;;;;;;21.13;25.40;94655.88;10440032;28;1919;-44
2022/02/21 18:38:14;;;;;;;;;;;;;;;21.11;25.15;94664.09;10422483;28;1959;-47
2022/02/21 18:43:15;;;;;;;;;;;;;;;21.10;25.15;94672.31;10417122;28;1821;-50
2022/02/21 18:48:15;;;;;;;;;;;;;;;21.08;24.81;94677.88;10423619;28;1914;-49
2022/02/21 18:53:18;;;;;;;;;;;;;;;21.06;25.00;94687.94;10421824;28;1848;-47
2022/02/21 18:58:18;;;;;;;;;;;;;;;21.04;25.10;94706.66;10417906;28;1854;-51
2022/02/21 19:03:19;;;;;;;;;;;;;;;21.05;24.77;94715.34;10422491;28;1891;-49
2022/02/21 19:08:19;;;;;;;;;;;;;;;21.08;25.12;94696.31;10415138;28;1898;-46
2022/02/21 19:13:20;;;;;;;;;;;;;;;21.09;24.84;94726.84;10404727;28;1807;-47
2022/02/21 19:18:21;;;;;;;;;;;;;;;21.09;25.24;94729.47;10436568;28;1889;-47
2022/02/21 19:23:22;;;;;;;;;;;;;;;21.08;25.27;94728.69;10438292;28;1867;-48
2022/02/21 19:28:23;;;;;;;;;;;;;;;21.06;24.94;94754.56;10439890;28;1997;-46
2022/02/21 19:33:24;;;;;;;;;;;;;;;21.06;24.83;94759.84;10419391;28;1896;-51
2022/02/21 19:38:25;;;;;;;;;;;;;;;21.06;24.87;94767.75;10438386;28;1844;-47
2022/02/21 19:43:25;;;;;;;;;;;;;;;21.06;24.92;94741.41;10426221;28;1842;-46
2022/02/21 19:48:27;;;;;;;;;;;;;;;21.05;24.94;94765.41;10446448;28;1981;-45
2022/02/21 19:53:27;;;;;;;;;;;;;;;21.11;25.57;94800.31;10428665;28;1928;-47
2022/02/21 19:58:28;;;;;;;;;;;;;;;21.20;25.75;94772.19;10424508;28;1849;-51
2022/02/21 20:03:29;;;;;;;;;;;;;;;21.22;25.29;94776.09;10413302;28;2082;-45
2022/02/21 20:08:30;;;;;;;;;;;;;;;21.14;24.97;94781.28;10448623;28;2021;-46
2022/02/21 20:13:31;;;;;;;;;;;;;;;21.20;25.64;94798.53;10446090;28;1942;-47
2022/02/21 20:18:33;;;;;;;;;;;;;;;21.19;25.25;94810.16;10448238;28;2031;-48
2022/02/21 20:23:38;;;;;;;;;;;;;;;21.19;25.37;94802.25;10425733;28;1964;-49
2022/02/21 20:28:39;;;;;;;;;;;;;;;21.18;25.57;94829.69;10427000;28;1980;-46
2022/02/21 20:33:40;;;;;;;;;;;;;;;21.15;25.41;94849.50;10440405;28;2091;-45
2022/02/21 20:38:42;;;;;;;;;;;;;;;21.15;25.25;94877.72;10445317;28;1941;-49
2022/02/21 20:43:42;;;;;;;;;;;;;;;21.13;25.11;94899.09;10443395;28;1955;-46
2022/02/21 20:48:44;;;;;;;;;;;;;;;21.12;25.31;94896.75;10431957;28;1985;-48
2022/02/21 20:53:45;;;;;;;;;;;;;;;21.13;25.25;94919.38;10425912;28;1954;-48
2022/02/21 20:58:46;;;;;;;;;;;;;;;21.13;25.45;94929.94;10428163;28;2273;-49
2022/02/21 21:03:46;;;;;;;;;;;;;;;21.14;25.32;94963.13;10426244;28;1881;-46
2022/02/21 21:08:48;;;;;;;;;;;;;;;21.16;25.59;94979.41;10428569;28;2037;-44
2022/02/21 21:13:48;;;;;;;;;;;;;;;21.18;25.65;95011.53;10449742;28;2071;-46
2022/02/21 21:18:49;;;;;;;;;;;;;;;21.19;26.17;95016.50;10428137;28;1897;-46
2022/02/21 21:23:49;;;;;;;;;;;;;;;21.23;26.54;95024.59;10423844;28;2041;-45
2022/02/21 21:28:49;;;;;;;;;;;;;;;21.27;26.96;95026.34;10424796;28;1947;-49
2022/02/21 21:33:50;;;;;;;;;;;;;;;21.20;26.01;95051.56;10444559;28;1894;-47
2022/02/21 21:38:50;;;;;;;;;;;;;;;21.16;26.20;95069.03;10439757;28;2003;-49
2022/02/21 21:43:51;;;;;;;;;;;;;;;21.18;26.42;95074.78;10423381;28;1853;-46
2022/02/21 21:48:52;;;;;;;;;;;;;;;21.17;26.35;95094.28;10447765;28;1973;-46
2022/02/21 21:53:53;;;;;;;;;;;;;;;21.17;26.24;95112.75;10445712;28;1839;-48
2022/02/21 21:58:53;;;;;;;;;;;;;;;21.16;26.34;95125.16;10441574;28;2020;-50
2022/02/21 22:03:54;;;;;;;;;;;;;;;21.16;26.17;95133.06;10423323;28;1827;-46
2022/02/21 22:08:55;;;;;;;;;;;;;;;21.17;26.30;95144.38;10427456;28;1992;-46
2022/02/21 22:13:55;;;;;;;;;;;;;;;21.17;26.20;95144.38;10425339;28;1844;-47
2022/02/21 22:18:56;;;;;;;;;;;;;;;21.17;26.64;95157.53;10423614;28;2032;-45
2022/02/21 22:23:56;;;;;;;;;;;;;;;21.16;26.03;95158.63;10426181;28;1878;-46
2022/02/21 22:28:57;;;;;;;;;;;;;;;21.14;26.02;95166.84;10429283;28;1928;-49
2022/02/21 22:33:58;;;;;;;;;;;;;;;21.14;26.09;95174.75;10445374;28;1459;-51
2022/02/21 22:38:58;;;;;;;;;;;;;;;21.16;25.89;95192.91;10425733;28;1848;-46
2022/02/21 22:43:59;;;;;;;;;;;;;;;21.16;26.18;95198.97;10424245;28;1843;-50
2022/02/21 22:48:59;;;;;;;;;;;;;;;21.15;26.14;95207.13;10435758;28;1914;-49
2022/02/21 22:53:59;;;;;;;;;;;;;;;21.14;25.98;95205.59;10428085;28;1815;-47
2022/02/21 22:59:00;;;;;;;;;;;;;;;21.15;26.13;95222.94;10423356;28;1820;-46
2022/02/21 23:09:19;;;;;;;;;;;;;;;21.14;26.02;95238.00;10428005;28;1910;-48
2022/02/21 23:14:19;;;;;;;;;;;;;;;21.15;26.10;95238.75;10435847;28;1826;-46
2022/02/21 23:19:20;;;;;;;;;;;;;;;21.16;26.07;95240.34;10436932;28;1839;-49
2022/02/21 23:24:20;;;;;;;;;;;;;;;21.16;26.46;95245.63;10443100;28;1862;-46
2022/02/21 23:29:20;;;;;;;;;;;;;;;21.15;26.13;95244.03;10442119;28;1977;-50
2022/02/21 23:34:21;;;;;;;;;;;;;;;21.14;26.03;95247.75;10443455;28;1908;-44
2022/02/21 23:39:21;;;;;;;;;;;;;;;21.15;26.24;95265.13;10443367;28;1858;-47
2022/02/21 23:44:22;;;;;;;;;;;;;;;21.15;26.09;95259.84;10444594;28;2113;-47
2022/02/21 23:49:22;;;;;;;;;;;;;;;21.15;26.03;95259.84;10441863;28;1910;-48
2022/02/21 23:54:22;;;;;;;;;;;;;;;21.15;25.79;95275.66;10444425;28;1926;-46
2022/02/21 23:59:23;;;;;;;;;;;;;;;21.16;26.23;95270.13;10421760;28;1956;-47
